createdAt,value
2022-10-01T00:00:45.475Z,99856.25
2022-10-01T00:01:46.982Z,99863.22
2022-10-01T00:02:48.508Z,99860.19
2022-10-01T00:03:50.418Z,99862.47
2022-10-01T00:04:51.902Z,99860.28
2022-10-01T00:06:12.860Z,99860.81
2022-10-01T00:07:15.369Z,99855.84
2022-10-01T00:08:16.902Z,99857.31
2022-10-01T00:09:18.351Z,99851.13
2022-10-01T00:10:19.857Z,99853.09
2022-10-01T00:11:22.156Z,99858.19
2022-10-01T00:12:23.587Z,99860.41
2022-10-01T00:13:25.540Z,99856.78
2022-10-01T00:14:27.531Z,99856.22
2022-10-01T00:15:28.999Z,99852.09
2022-10-01T00:16:30.713Z,99854.41
2022-10-01T00:17:32.616Z,99850.75
2022-10-01T00:18:37.569Z,99853.56
2022-10-01T00:19:38.994Z,99850.19
2022-10-01T00:20:43.442Z,99847.63
2022-10-01T00:21:44.899Z,99845.63
2022-10-01T00:22:47.379Z,99855.94
2022-10-01T00:23:53.281Z,99850.88
2022-10-01T00:24:54.775Z,99856.72
2022-10-01T00:25:56.391Z,99843.09
2022-10-01T00:26:57.840Z,99838.97
2022-10-01T00:27:59.371Z,99842.06
2022-10-01T00:29:01.671Z,99835.88
2022-10-01T00:30:06.819Z,99833.03
2022-10-01T00:31:08.411Z,99836.94
2022-10-01T00:32:09.981Z,99836.34
2022-10-01T00:33:11.481Z,99831.28
2022-10-01T00:34:13.777Z,99825.22
2022-10-01T00:35:15.247Z,99830.53
2022-10-01T00:36:16.770Z,99831.38
2022-10-01T00:37:18.207Z,99829.53
2022-10-01T00:38:19.647Z,99827.88
2022-10-01T00:39:21.178Z,99823.16
2022-10-01T00:40:22.674Z,99820.34
2022-10-01T00:41:24.703Z,99819.25
2022-10-01T00:42:26.855Z,99829.31
2022-10-01T00:43:35.167Z,99818.69
2022-10-01T00:44:37.028Z,99821.47
2022-10-01T00:45:38.516Z,99822.03
2022-10-01T00:46:43.385Z,99818.38
2022-10-01T00:47:47.131Z,99824.84
2022-10-01T00:48:59.221Z,99824.34
2022-10-01T00:50:16.438Z,99827.16
2022-10-01T00:51:17.952Z,99823.75
2022-10-01T00:52:21.637Z,99831.84
2022-10-01T00:53:23.069Z,99833.56
2022-10-01T00:54:36.809Z,99822.09
2022-10-01T00:55:40.095Z,99824.94
2022-10-01T00:56:41.739Z,99829.41
2022-10-01T00:57:43.202Z,99817.97
2022-10-01T00:58:44.691Z,99827.22
2022-10-01T00:59:46.123Z,99832.25
2022-10-01T01:00:47.570Z,99823.88
2022-10-01T01:01:49.243Z,99820.56
2022-10-01T01:02:51.015Z,99821.69
2022-10-01T01:03:52.458Z,99821.41
2022-10-01T01:04:53.998Z,99818.59
2022-10-01T01:05:55.427Z,99815.56
2022-10-01T01:06:57.819Z,99815.31
2022-10-01T01:08:01.598Z,99813.91
2022-10-01T01:09:03.240Z,99816.09
2022-10-01T01:10:04.816Z,99804.91
2022-10-01T01:11:08.274Z,99806.88
2022-10-01T01:12:27.987Z,99803.78
2022-10-01T01:13:51.259Z,99807.16
2022-10-01T01:15:11.760Z,99813.06
2022-10-01T01:16:21.769Z,99811.09
2022-10-01T01:17:25.071Z,99802.97
2022-10-01T01:18:37.255Z,99818.34
2022-10-01T01:19:50.908Z,99815.56
2022-10-01T01:20:55.403Z,99812.75
2022-10-01T01:22:00.308Z,99811.09
2022-10-01T01:23:04.803Z,99809.97
2022-10-01T01:24:15.120Z,99811.09
2022-10-01T01:25:17.719Z,99809.69
2022-10-01T01:26:21.187Z,99807.47
2022-10-01T01:27:28.604Z,99799.91
2022-10-01T01:28:31.731Z,99806.34
2022-10-01T01:29:34.872Z,99806.88
2022-10-01T01:30:37.124Z,99806.34
2022-10-01T01:31:39.674Z,99814.97
2022-10-01T01:33:11.873Z,99797.13
2022-10-01T01:34:14.201Z,99812.56
2022-10-01T01:35:19.291Z,99809.53
2022-10-01T01:36:23.181Z,99813.41
2022-10-01T01:37:26.674Z,99797.22
2022-10-01T01:38:30.010Z,99807.84
2022-10-01T01:39:31.995Z,99803.94
2022-10-01T01:40:35.070Z,99801.13
2022-10-01T01:41:37.668Z,99783.00
2022-10-01T01:42:39.683Z,99791.09
2022-10-01T01:43:41.856Z,99794.22
2022-10-01T01:44:44.455Z,99772.66
2022-10-01T01:45:45.938Z,99784.13
2022-10-01T01:46:49.400Z,99776.03
2022-10-01T01:47:51.035Z,99779.13
2022-10-01T01:48:53.313Z,99787.78
2022-10-01T01:49:54.746Z,99777.25
2022-10-01T01:51:16.872Z,99778.38
2022-10-01T01:52:18.442Z,99778.34
2022-10-01T01:53:20.246Z,99780.88
2022-10-01T01:54:21.772Z,99782.03
2022-10-01T01:55:23.415Z,99773.94
2022-10-01T01:56:24.880Z,99775.66
2022-10-01T01:57:26.716Z,99776.22
2022-10-01T01:58:28.254Z,99776.81
2022-10-01T01:59:30.061Z,99772.66
2022-10-01T02:00:31.495Z,99774.34
2022-10-01T02:01:40.152Z,99779.63
2022-10-01T02:02:43.861Z,99776.31
2022-10-01T02:03:45.335Z,99777.41
2022-10-01T02:05:16.146Z,99766.25
2022-10-01T02:06:42.655Z,99763.69
2022-10-01T02:07:44.122Z,99767.25
2022-10-01T02:08:55.675Z,99770.53
2022-10-01T02:10:03.006Z,99766.94
2022-10-01T02:11:07.146Z,99766.38
2022-10-01T02:12:30.291Z,99768.31
2022-10-01T02:13:39.028Z,99770.00
2022-10-01T02:14:45.115Z,99768.03
2022-10-01T02:16:06.856Z,99763.81
2022-10-01T02:17:10.996Z,99766.84
2022-10-01T02:18:16.562Z,99765.97
2022-10-01T02:19:38.815Z,99763.19
2022-10-01T02:20:48.015Z,99767.63
2022-10-01T02:21:49.696Z,99771.81
2022-10-01T02:22:52.862Z,99761.19
2022-10-01T02:23:58.108Z,99762.03
2022-10-01T02:25:00.039Z,99763.97
2022-10-01T02:26:19.617Z,99767.84
2022-10-01T02:27:26.222Z,99768.66
2022-10-01T02:28:27.957Z,99757.72
2022-10-01T02:29:29.471Z,99760.25
2022-10-01T02:30:31.406Z,99767.75
2022-10-01T02:31:33.101Z,99775.28
2022-10-01T02:32:35.491Z,99769.09
2022-10-01T02:33:36.997Z,99774.09
2022-10-01T02:34:38.460Z,99768.78
2022-10-01T02:35:39.979Z,99760.69
2022-10-01T02:36:42.104Z,99769.00
2022-10-01T02:37:44.347Z,99762.06
2022-10-01T02:38:45.827Z,99757.28
2022-10-01T02:39:47.414Z,99755.66
2022-10-01T02:40:48.888Z,99747.81
2022-10-01T02:41:50.330Z,99743.59
2022-10-01T02:42:55.283Z,99753.13
2022-10-01T02:43:57.541Z,99749.78
2022-10-01T02:45:02.618Z,99745.03
2022-10-01T02:46:15.783Z,99738.84
2022-10-01T02:47:34.118Z,99732.41
2022-10-01T02:48:36.013Z,99735.44
2022-10-01T02:49:37.498Z,99725.97
2022-10-01T02:50:42.234Z,99725.38
2022-10-01T02:51:46.218Z,99727.66
2022-10-01T02:52:50.338Z,99725.97
2022-10-01T02:53:53.484Z,99722.66
2022-10-01T02:54:56.144Z,99720.16
2022-10-01T02:55:57.651Z,99723.78
2022-10-01T02:57:18.004Z,99724.56
2022-10-01T02:58:19.482Z,99723.41
2022-10-01T02:59:21.435Z,99718.06
2022-10-01T03:00:23.007Z,99719.41
2022-10-01T03:01:24.504Z,99716.84
2022-10-01T03:02:29.606Z,99714.03
2022-10-01T03:03:31.620Z,99724.34
2022-10-01T03:04:33.086Z,99715.94
2022-10-01T03:05:34.530Z,99725.69
2022-10-01T03:06:36.131Z,99705.81
2022-10-01T03:07:38.079Z,99711.97
2022-10-01T03:08:39.510Z,99716.44
2022-10-01T03:09:41.000Z,99708.06
2022-10-01T03:10:46.023Z,99717.38
2022-10-01T03:11:48.247Z,99726.00
2022-10-01T03:12:51.015Z,99720.09
2022-10-01T03:13:53.711Z,99718.13
2022-10-01T03:14:55.351Z,99715.03
2022-10-01T03:15:56.808Z,99714.50
2022-10-01T03:16:58.303Z,99717.69
2022-10-01T03:17:59.814Z,99714.94
2022-10-01T03:19:01.384Z,99712.22
2022-10-01T03:20:03.255Z,99720.63
2022-10-01T03:21:04.766Z,99715.94
2022-10-01T03:22:06.975Z,99716.78
2022-10-01T03:23:08.503Z,99712.84
2022-10-01T03:24:10.043Z,99713.72
2022-10-01T03:25:11.512Z,99710.69
2022-10-01T03:26:13.002Z,99708.72
2022-10-01T03:27:14.445Z,99715.44
2022-10-01T03:28:16.156Z,99704.56
2022-10-01T03:29:17.875Z,99709.03
2022-10-01T03:30:19.364Z,99705.91
2022-10-01T03:31:20.875Z,99704.78
2022-10-01T03:32:22.436Z,99702.53
2022-10-01T03:33:23.879Z,99713.41
2022-10-01T03:34:25.446Z,99711.50
2022-10-01T03:35:26.954Z,99693.03
2022-10-01T03:36:28.442Z,99697.19
2022-10-01T03:37:29.867Z,99700.22
2022-10-01T03:38:31.521Z,99710.28
2022-10-01T03:39:33.020Z,99694.03
2022-10-01T03:40:37.930Z,99703.53
2022-10-01T03:41:39.432Z,99702.94
2022-10-01T03:42:40.880Z,99707.09
2022-10-01T03:43:42.354Z,99704.00
2022-10-01T03:44:43.871Z,99696.75
2022-10-01T03:45:45.424Z,99702.69
2022-10-01T03:46:46.951Z,99704.66
2022-10-01T03:47:54.326Z,99706.31
2022-10-01T03:48:57.245Z,99701.25
2022-10-01T03:49:58.715Z,99697.41
2022-10-01T03:51:00.239Z,99692.66
2022-10-01T03:52:02.568Z,99687.03
2022-10-01T03:53:04.028Z,99695.91
2022-10-01T03:54:05.790Z,99690.91
2022-10-01T03:55:07.543Z,99686.78
2022-10-01T03:56:09.050Z,99683.38
2022-10-01T03:57:10.543Z,99680.56
2022-10-01T03:58:11.994Z,99683.94
2022-10-01T03:59:13.472Z,99685.34
2022-10-01T04:00:15.218Z,99680.31
2022-10-01T04:01:17.304Z,99678.47
2022-10-01T04:02:19.939Z,99676.22
2022-10-01T04:03:21.527Z,99686.84
2022-10-01T04:04:22.986Z,99686.59
2022-10-01T04:05:25.617Z,99687.13
2022-10-01T04:06:27.139Z,99677.91
2022-10-01T04:07:28.789Z,99673.97
2022-10-01T04:08:30.270Z,99691.34
2022-10-01T04:09:31.722Z,99679.03
2022-10-01T04:10:33.431Z,99685.75
2022-10-01T04:11:35.349Z,99694.41
2022-10-01T04:12:37.071Z,99677.91
2022-10-01T04:13:38.525Z,99689.63
2022-10-01T04:14:40.007Z,99681.22
2022-10-01T04:15:41.519Z,99694.31
2022-10-01T04:16:43.413Z,99683.50
2022-10-01T04:17:46.145Z,99684.09
2022-10-01T04:18:47.676Z,99686.34
2022-10-01T04:19:49.319Z,99683.63
2022-10-01T04:20:51.039Z,99684.47
2022-10-01T04:21:52.507Z,99683.56
2022-10-01T04:22:54.246Z,99681.88
2022-10-01T04:23:55.783Z,99677.41
2022-10-01T04:24:57.239Z,99678.78
2022-10-01T04:25:59.868Z,99676.22
2022-10-01T04:27:01.332Z,99681.56
2022-10-01T04:28:03.803Z,99679.84
2022-10-01T04:29:05.319Z,99674.56
2022-10-01T04:30:07.846Z,99681.28
2022-10-01T04:31:24.605Z,99686.94
2022-10-01T04:32:26.281Z,99679.69
2022-10-01T04:33:27.747Z,99668.72
2022-10-01T04:34:48.118Z,99669.28
2022-10-01T04:35:49.738Z,99672.59
2022-10-01T04:36:51.231Z,99671.19
2022-10-01T04:37:59.181Z,99675.41
2022-10-01T04:39:02.576Z,99677.06
2022-10-01T04:40:05.014Z,99666.19
2022-10-01T04:41:06.550Z,99665.03
2022-10-01T04:42:08.167Z,99652.44
2022-10-01T04:43:09.778Z,99648.28
2022-10-01T04:44:11.240Z,99660.84
2022-10-01T04:45:13.510Z,99659.72
2022-10-01T04:46:15.103Z,99659.47
2022-10-01T04:47:16.630Z,99655.81
2022-10-01T04:48:18.118Z,99650.53
2022-10-01T04:49:19.611Z,99655.56
2022-10-01T04:50:21.771Z,99651.06
2022-10-01T04:51:24.575Z,99662.81
2022-10-01T04:52:26.474Z,99651.66
2022-10-01T04:53:28.363Z,99657.25
2022-10-01T04:54:29.866Z,99648.56
2022-10-01T04:55:31.339Z,99639.72
2022-10-01T04:56:32.781Z,99648.56
2022-10-01T04:57:34.488Z,99658.34
2022-10-01T04:58:36.023Z,99650.53
2022-10-01T04:59:37.499Z,99653.31
2022-10-01T05:00:38.991Z,99653.09
2022-10-01T05:01:41.897Z,99643.94
2022-10-01T05:02:44.632Z,99653.41
2022-10-01T05:03:47.438Z,99636.91
2022-10-01T05:04:49.018Z,99631.84
2022-10-01T05:05:50.564Z,99633.25
2022-10-01T05:06:52.144Z,99641.06
2022-10-01T05:07:53.758Z,99631.31
2022-10-01T05:08:55.231Z,99641.94
2022-10-01T05:09:56.815Z,99627.13
2022-10-01T05:11:01.030Z,99621.00
2022-10-01T05:12:02.551Z,99635.50
2022-10-01T05:13:04.077Z,99615.75
2022-10-01T05:14:05.546Z,99614.09
2022-10-01T05:15:07.367Z,99618.78
2022-10-01T05:16:08.937Z,99605.34
2022-10-01T05:17:10.457Z,99602.59
2022-10-01T05:18:11.903Z,99602.34
2022-10-01T05:19:14.243Z,99586.59
2022-10-01T05:20:19.183Z,99591.28
2022-10-01T05:21:20.864Z,99601.84
2022-10-01T05:22:22.578Z,99587.34
2022-10-01T05:23:24.044Z,99585.41
2022-10-01T05:24:26.141Z,99583.16
2022-10-01T05:25:27.717Z,99578.13
2022-10-01T05:26:32.052Z,99580.34
2022-10-01T05:27:37.771Z,99570.38
2022-10-01T05:28:44.393Z,99569.47
2022-10-01T05:29:46.887Z,99569.75
2022-10-01T05:30:48.381Z,99567.56
2022-10-01T05:31:50.363Z,99566.50
2022-10-01T05:32:55.519Z,99576.56
2022-10-01T05:33:57.262Z,99588.16
2022-10-01T05:34:58.731Z,99579.78
2022-10-01T05:36:00.927Z,99605.75
2022-10-01T05:37:02.902Z,99597.91
2022-10-01T05:38:04.452Z,99610.09
2022-10-01T05:39:05.972Z,99602.31
2022-10-01T05:40:07.500Z,99593.94
2022-10-01T05:41:09.023Z,99604.63
2022-10-01T05:42:10.494Z,99602.91
2022-10-01T05:43:12.138Z,99595.66
2022-10-01T05:44:13.633Z,99601.78
2022-10-01T05:45:15.104Z,99603.44
2022-10-01T05:46:16.699Z,99601.78
2022-10-01T05:47:18.438Z,99609.81
2022-10-01T05:48:19.900Z,99610.91
2022-10-01T05:49:24.272Z,99591.59
2022-10-01T05:50:25.859Z,99599.97
2022-10-01T05:51:27.426Z,99593.25
2022-10-01T05:52:28.892Z,99583.22
2022-10-01T05:53:30.366Z,99585.72
2022-10-01T05:54:31.842Z,99600.50
2022-10-01T05:55:34.507Z,99600.78
2022-10-01T05:56:36.848Z,99601.84
2022-10-01T05:57:38.889Z,99609.66
2022-10-01T05:58:40.388Z,99604.28
2022-10-01T05:59:41.873Z,99598.69
2022-10-01T06:00:43.421Z,99601.78
2022-10-01T06:01:44.977Z,99595.88
2022-10-01T06:02:49.986Z,99603.13
2022-10-01T06:03:52.248Z,99597.56
2022-10-01T06:04:53.762Z,99595.59
2022-10-01T06:05:55.655Z,99589.75
2022-10-01T06:06:57.232Z,99576.63
2022-10-01T06:07:58.714Z,99586.41
2022-10-01T06:09:00.215Z,99583.88
2022-10-01T06:10:01.655Z,99588.03
2022-10-01T06:11:03.291Z,99581.38
2022-10-01T06:12:05.536Z,99589.75
2022-10-01T06:13:07.162Z,99577.47
2022-10-01T06:14:08.611Z,99595.91
2022-10-01T06:15:10.479Z,99595.19
2022-10-01T06:16:12.621Z,99600.22
2022-10-01T06:17:14.129Z,99598.25
2022-10-01T06:18:15.583Z,99595.44
2022-10-01T06:19:17.465Z,99595.44
2022-10-01T06:20:20.599Z,99599.34
2022-10-01T06:21:22.055Z,99599.59
2022-10-01T06:22:23.603Z,99585.69
2022-10-01T06:23:25.067Z,99584.25
2022-10-01T06:24:26.767Z,99597.69
2022-10-01T06:25:31.623Z,99584.50
2022-10-01T06:26:33.071Z,99583.06
2022-10-01T06:27:34.547Z,99589.75
2022-10-01T06:28:36.067Z,99586.91
2022-10-01T06:29:37.834Z,99589.63
2022-10-01T06:30:39.986Z,99595.19
2022-10-01T06:31:41.851Z,99586.28
2022-10-01T06:32:43.339Z,99593.00
2022-10-01T06:33:44.870Z,99594.41
2022-10-01T06:34:46.359Z,99585.19
2022-10-01T06:35:48.800Z,99591.38
2022-10-01T06:36:50.305Z,99591.66
2022-10-01T06:37:51.776Z,99577.75
2022-10-01T06:38:53.278Z,99581.06
2022-10-01T06:39:54.888Z,99581.41
2022-10-01T06:40:58.994Z,99579.13
2022-10-01T06:42:00.545Z,99576.31
2022-10-01T06:43:01.992Z,99582.38
2022-10-01T06:44:03.479Z,99578.50
2022-10-01T06:45:05.181Z,99585.47
2022-10-01T06:46:06.851Z,99575.13
2022-10-01T06:47:08.695Z,99589.16
2022-10-01T06:48:13.900Z,99584.16
2022-10-01T06:49:15.728Z,99603.16
2022-10-01T06:50:17.235Z,99586.16
2022-10-01T06:51:38.706Z,99579.97
2022-10-01T06:52:49.302Z,99588.66
2022-10-01T06:53:50.790Z,99580.53
2022-10-01T06:54:52.307Z,99585.25
2022-10-01T06:55:53.859Z,99593.31
2022-10-01T06:56:55.320Z,99586.31
2022-10-01T06:58:03.425Z,99583.22
2022-10-01T06:59:04.992Z,99587.97
2022-10-01T07:00:06.674Z,99581.31
2022-10-01T07:01:08.277Z,99587.41
2022-10-01T07:02:15.129Z,99587.03
2022-10-01T07:03:17.475Z,99585.66
2022-10-01T07:04:19.213Z,99595.41
2022-10-01T07:05:20.647Z,99583.88
2022-10-01T07:06:22.086Z,99585.47
2022-10-01T07:07:28.158Z,99577.06
2022-10-01T07:08:31.407Z,99579.25
2022-10-01T07:09:32.946Z,99573.66
2022-10-01T07:10:34.901Z,99569.13
2022-10-01T07:11:36.845Z,99573.66
2022-10-01T07:12:38.383Z,99566.63
2022-10-01T07:13:39.883Z,99566.88
2022-10-01T07:14:41.463Z,99572.72
2022-10-01T07:15:42.975Z,99564.00
2022-10-01T07:16:44.546Z,99572.34
2022-10-01T07:17:47.040Z,99577.09
2022-10-01T07:18:48.506Z,99568.41
2022-10-01T07:19:50.002Z,99569.78
2022-10-01T07:20:51.554Z,99567.22
2022-10-01T07:21:53.060Z,99572.00
2022-10-01T07:22:58.097Z,99567.53
2022-10-01T07:23:59.623Z,99571.16
2022-10-01T07:25:01.074Z,99577.34
2022-10-01T07:26:06.002Z,99573.44
2022-10-01T07:27:07.693Z,99572.94
2022-10-01T07:28:16.113Z,99573.06
2022-10-01T07:29:17.891Z,99569.78
2022-10-01T07:30:19.372Z,99567.81
2022-10-01T07:31:20.844Z,99572.91
2022-10-01T07:32:22.343Z,99573.19
2022-10-01T07:33:23.833Z,99560.91
2022-10-01T07:34:25.975Z,99574.34
2022-10-01T07:35:28.545Z,99569.38
2022-10-01T07:36:30.915Z,99562.63
2022-10-01T07:37:32.361Z,99562.94
2022-10-01T07:38:33.883Z,99571.88
2022-10-01T07:39:35.890Z,99582.75
2022-10-01T07:40:37.390Z,99568.84
2022-10-01T07:41:38.955Z,99564.31
2022-10-01T07:42:41.090Z,99577.69
2022-10-01T07:43:43.860Z,99586.22
2022-10-01T07:44:45.355Z,99577.00
2022-10-01T07:45:47.347Z,99583.94
2022-10-01T07:46:48.923Z,99583.13
2022-10-01T07:47:56.806Z,99571.38
2022-10-01T07:48:58.287Z,99566.59
2022-10-01T07:49:59.783Z,99581.41
2022-10-01T07:51:01.415Z,99582.28
2022-10-01T07:52:02.871Z,99585.16
2022-10-01T07:53:04.650Z,99580.72
2022-10-01T07:54:06.115Z,99580.81
2022-10-01T07:55:10.992Z,99578.56
2022-10-01T07:56:12.494Z,99576.34
2022-10-01T07:57:14.386Z,99584.41
2022-10-01T07:58:15.959Z,99577.16
2022-10-01T07:59:18.038Z,99575.78
2022-10-01T08:00:19.646Z,99578.06
2022-10-01T08:01:21.173Z,99576.94
2022-10-01T08:02:22.848Z,99581.06
2022-10-01T08:03:24.687Z,99581.53
2022-10-01T08:04:44.506Z,99571.69
2022-10-01T08:05:46.761Z,99568.84
2022-10-01T08:06:49.063Z,99559.91
2022-10-01T08:07:50.674Z,99565.75
2022-10-01T08:08:52.123Z,99564.00
2022-10-01T08:09:53.610Z,99568.97
2022-10-01T08:10:55.067Z,99569.50
2022-10-01T08:11:56.512Z,99567.22
2022-10-01T08:13:01.480Z,99561.03
2022-10-01T08:14:04.639Z,99551.28
2022-10-01T08:15:08.486Z,99556.88
2022-10-01T08:16:11.803Z,99547.34
2022-10-01T08:17:13.634Z,99548.66
2022-10-01T08:18:15.121Z,99543.91
2022-10-01T08:19:16.644Z,99538.00
2022-10-01T08:20:18.178Z,99529.00
2022-10-01T08:21:19.764Z,99521.13
2022-10-01T08:22:21.197Z,99518.63
2022-10-01T08:23:22.732Z,99524.53
2022-10-01T08:24:24.927Z,99538.22
2022-10-01T08:25:26.372Z,99562.28
2022-10-01T08:26:27.943Z,99575.69
2022-10-01T08:27:29.415Z,99575.09
2022-10-01T08:28:30.942Z,99568.81
2022-10-01T08:29:34.338Z,99556.50
2022-10-01T08:30:36.480Z,99550.31
2022-10-01T08:31:38.292Z,99553.34
2022-10-01T08:32:39.996Z,99555.78
2022-10-01T08:33:41.419Z,99568.94
2022-10-01T08:34:42.898Z,99574.25
2022-10-01T08:35:44.518Z,99592.09
2022-10-01T08:36:50.992Z,99584.22
2022-10-01T08:37:52.500Z,99581.94
2022-10-01T08:38:53.963Z,99587.03
2022-10-01T08:39:55.805Z,99596.94
2022-10-01T08:40:57.231Z,99600.00
2022-10-01T08:42:01.648Z,99595.50
2022-10-01T08:43:06.118Z,99576.72
2022-10-01T08:44:07.611Z,99572.50
2022-10-01T08:45:11.612Z,99575.81
2022-10-01T08:46:13.986Z,99572.41
2022-10-01T08:47:24.859Z,99566.25
2022-10-01T08:48:58.664Z,99561.22
2022-10-01T08:50:00.792Z,99546.34
2022-10-01T08:51:04.958Z,99544.88
2022-10-01T08:52:13.310Z,99548.13
2022-10-01T08:53:18.523Z,99559.34
2022-10-01T08:54:22.797Z,99554.28
2022-10-01T08:55:24.875Z,99553.22
2022-10-01T08:56:30.554Z,99547.16
2022-10-01T08:57:39.506Z,99543.75
2022-10-01T08:58:42.251Z,99538.16
2022-10-01T08:59:44.273Z,99548.75
2022-10-01T09:00:45.955Z,99554.03
2022-10-01T09:01:48.528Z,99558.81
2022-10-01T09:02:50.435Z,99566.03
2022-10-01T09:03:51.971Z,99565.72
2022-10-01T09:04:58.899Z,99570.47
2022-10-01T09:06:10.669Z,99562.91
2022-10-01T09:07:22.857Z,99569.88
2022-10-01T09:08:24.280Z,99574.84
2022-10-01T09:09:29.761Z,99570.66
2022-10-01T09:10:43.381Z,99570.91
2022-10-01T09:11:44.876Z,99568.06
2022-10-01T09:12:52.131Z,99573.16
2022-10-01T09:13:54.424Z,99568.06
2022-10-01T09:15:01.878Z,99578.03
2022-10-01T09:16:06.661Z,99574.94
2022-10-01T09:17:10.864Z,99580.25
2022-10-01T09:18:19.006Z,99581.91
2022-10-01T09:19:26.122Z,99579.97
2022-10-01T09:20:29.511Z,99586.38
2022-10-01T09:21:49.047Z,99590.53
2022-10-01T09:23:03.967Z,99585.19
2022-10-01T09:24:15.585Z,99595.84
2022-10-01T09:25:19.791Z,99593.28
2022-10-01T09:26:25.533Z,99586.84
2022-10-01T09:27:27.350Z,99584.56
2022-10-01T09:28:29.776Z,99580.13
2022-10-01T09:29:32.952Z,99581.19
2022-10-01T09:30:34.419Z,99570.50
2022-10-01T09:31:37.442Z,99580.94
2022-10-01T09:32:41.423Z,99586.03
2022-10-01T09:33:44.502Z,99581.78
2022-10-01T09:34:46.008Z,99587.94
2022-10-01T09:35:54.635Z,99584.81
2022-10-01T09:37:05.664Z,99589.81
2022-10-01T09:38:20.723Z,99589.28
2022-10-01T09:39:26.606Z,99588.16
2022-10-01T09:40:49.254Z,99583.59
2022-10-01T09:41:50.837Z,99582.75
2022-10-01T09:42:52.300Z,99587.31
2022-10-01T09:43:53.739Z,99585.88
2022-10-01T09:44:55.762Z,99595.72
2022-10-01T09:45:57.782Z,99587.84
2022-10-01T09:46:59.257Z,99592.31
2022-10-01T09:48:05.195Z,99586.41
2022-10-01T09:49:11.428Z,99586.63
2022-10-01T09:50:13.739Z,99587.69
2022-10-01T09:51:15.218Z,99581.56
2022-10-01T09:52:19.186Z,99598.28
2022-10-01T09:53:21.103Z,99585.31
2022-10-01T09:54:43.216Z,99590.34
2022-10-01T09:55:45.207Z,99586.38
2022-10-01T09:56:48.395Z,99592.00
2022-10-01T09:57:53.816Z,99593.03
2022-10-01T09:58:56.406Z,99598.84
2022-10-01T10:00:00.758Z,99600.84
2022-10-01T10:01:02.240Z,99595.75
2022-10-01T10:02:04.412Z,99599.63
2022-10-01T10:03:06.060Z,99587.88
2022-10-01T10:04:07.698Z,99601.34
2022-10-01T10:05:10.455Z,99598.03
2022-10-01T10:06:12.496Z,99600.53
2022-10-01T10:07:15.668Z,99591.81
2022-10-01T10:08:30.360Z,99598.28
2022-10-01T10:09:32.424Z,99609.06
2022-10-01T10:10:36.916Z,99609.59
2022-10-01T10:11:38.375Z,99622.16
2022-10-01T10:12:39.962Z,99623.84
2022-10-01T10:13:42.155Z,99618.47
2022-10-01T10:14:44.887Z,99621.16
2022-10-01T10:15:49.804Z,99629.06
2022-10-01T10:16:51.345Z,99624.81
2022-10-01T10:17:52.955Z,99625.44
2022-10-01T10:18:56.651Z,99621.78
2022-10-01T10:19:58.155Z,99625.94
2022-10-01T10:20:59.625Z,99616.91
2022-10-01T10:22:11.121Z,99625.31
2022-10-01T10:23:16.451Z,99621.16
2022-10-01T10:24:26.503Z,99620.97
2022-10-01T10:25:28.024Z,99634.06
2022-10-01T10:26:35.658Z,99639.66
2022-10-01T10:27:37.421Z,99620.34
2022-10-01T10:28:43.427Z,99634.28
2022-10-01T10:29:45.594Z,99613.53
2022-10-01T10:30:47.159Z,99629.94
2022-10-01T10:31:51.076Z,99616.94
2022-10-01T10:32:52.861Z,99614.44
2022-10-01T10:34:00.904Z,99620.38
2022-10-01T10:35:04.776Z,99617.69
2022-10-01T10:36:06.356Z,99609.78
2022-10-01T10:37:14.728Z,99613.09
2022-10-01T10:38:19.198Z,99607.69
2022-10-01T10:39:30.548Z,99612.47
2022-10-01T10:40:42.230Z,99616.00
2022-10-01T10:41:43.953Z,99620.38
2022-10-01T10:42:49.020Z,99609.66
2022-10-01T10:43:50.624Z,99610.44
2022-10-01T10:44:52.845Z,99617.91
2022-10-01T10:45:57.373Z,99609.19
2022-10-01T10:47:03.375Z,99615.56
2022-10-01T10:48:05.443Z,99622.72
2022-10-01T10:49:15.859Z,99632.19
2022-10-01T10:50:25.717Z,99624.38
2022-10-01T10:51:28.322Z,99620.75
2022-10-01T10:52:30.630Z,99623.78
2022-10-01T10:53:44.930Z,99627.09
2022-10-01T10:54:49.944Z,99617.53
2022-10-01T10:55:55.425Z,99635.97
2022-10-01T10:57:00.827Z,99631.69
2022-10-01T10:58:12.031Z,99631.47
2022-10-01T10:59:13.506Z,99640.44
2022-10-01T11:00:16.480Z,99633.69
2022-10-01T11:01:20.148Z,99639.84
2022-10-01T11:02:21.720Z,99625.69
2022-10-01T11:03:26.684Z,99633.81
2022-10-01T11:04:30.811Z,99638.78
2022-10-01T11:05:32.979Z,99640.75
2022-10-01T11:06:34.653Z,99657.94
2022-10-01T11:07:36.278Z,99638.59
2022-10-01T11:08:37.999Z,99631.00
2022-10-01T11:09:40.155Z,99647.22
2022-10-01T11:10:53.796Z,99638.78
2022-10-01T11:11:55.975Z,99635.88
2022-10-01T11:13:03.354Z,99640.88
2022-10-01T11:14:13.820Z,99622.56
2022-10-01T11:15:20.918Z,99629.84
2022-10-01T11:16:48.871Z,99634.56
2022-10-01T11:17:55.271Z,99633.91
2022-10-01T11:19:01.363Z,99623.19
2022-10-01T11:20:22.692Z,99622.56
2022-10-01T11:21:24.107Z,99626.00
2022-10-01T11:22:44.491Z,99629.66
2022-10-01T11:23:50.423Z,99611.34
2022-10-01T11:24:59.000Z,99628.50
2022-10-01T11:26:10.708Z,99631.50
2022-10-01T11:27:12.531Z,99631.44
2022-10-01T11:28:25.943Z,99630.16
2022-10-01T11:29:36.780Z,99631.72
2022-10-01T11:30:41.918Z,99634.44
2022-10-01T11:31:43.375Z,99631.81
2022-10-01T11:32:46.094Z,99642.75
2022-10-01T11:33:50.552Z,99636.50
2022-10-01T11:35:05.070Z,99635.69
2022-10-01T11:36:16.657Z,99643.28
2022-10-01T11:37:33.011Z,99647.13
2022-10-01T11:38:41.895Z,99644.31
2022-10-01T11:39:43.403Z,99643.78
2022-10-01T11:41:07.857Z,99638.69
2022-10-01T11:42:19.711Z,99639.19
2022-10-01T11:43:22.499Z,99635.25
2022-10-01T11:44:29.127Z,99641.09
2022-10-01T11:45:32.060Z,99654.81
2022-10-01T11:46:36.454Z,99651.06
2022-10-01T11:47:40.174Z,99652.59
2022-10-01T11:48:43.210Z,99650.84
2022-10-01T11:49:50.647Z,99669.88
2022-10-01T11:50:52.895Z,99644.56
2022-10-01T11:51:59.868Z,99661.44
2022-10-01T11:53:04.504Z,99665.59
2022-10-01T11:54:07.202Z,99662.47
2022-10-01T11:55:40.170Z,99658.72
2022-10-01T11:57:08.275Z,99668.38
2022-10-01T11:58:35.995Z,99668.06
2022-10-01T11:59:38.545Z,99663.50
2022-10-01T12:00:40.217Z,99667.44
2022-10-01T12:01:41.709Z,99670.16
2022-10-01T12:03:03.787Z,99675.28
2022-10-01T12:04:07.392Z,99659.56
2022-10-01T12:05:28.071Z,99662.66
2022-10-01T12:06:53.127Z,99669.31
2022-10-01T12:08:04.387Z,99672.34
2022-10-01T12:09:20.941Z,99662.88
2022-10-01T12:10:34.559Z,99665.78
2022-10-01T12:11:37.372Z,99668.28
2022-10-01T12:12:40.636Z,99662.66
2022-10-01T12:13:47.746Z,99665.38
2022-10-01T12:14:51.025Z,99674.00
2022-10-01T12:15:52.480Z,99660.97
2022-10-01T12:16:55.190Z,99674.09
2022-10-01T12:18:07.795Z,99666.97
2022-10-01T12:19:12.687Z,99667.19
2022-10-01T12:20:27.885Z,99658.22
2022-10-01T12:21:32.805Z,99656.06
2022-10-01T12:22:36.253Z,99653.44
2022-10-01T12:23:44.119Z,99664.56
2022-10-01T12:24:45.989Z,99656.31
2022-10-01T12:25:51.295Z,99652.53
2022-10-01T12:26:55.199Z,99656.50
2022-10-01T12:28:05.538Z,99659.03
2022-10-01T12:29:31.009Z,99657.56
2022-10-01T12:30:35.654Z,99653.78
2022-10-01T12:31:41.876Z,99642.69
2022-10-01T12:33:18.645Z,99653.34
2022-10-01T12:34:22.362Z,99654.50